createdAt,value
2018-07-13T00:01:34.787Z,5.50
2018-07-13T00:04:01.712Z,5.23
2018-07-13T00:06:29.201Z,4.53
2018-07-13T00:08:56.111Z,5.70
2018-07-13T00:11:23.001Z,6.17
2018-07-13T00:14:05.999Z,6.80
2018-07-13T00:16:32.908Z,6.40
2018-07-13T00:18:59.804Z,6.50
2018-07-13T00:21:26.698Z,6.40
2018-07-13T00:23:53.652Z,6.87
2018-07-13T00:26:22.583Z,6.13
2018-07-13T00:28:49.567Z,6.50
2018-07-13T00:31:16.501Z,7.00
2018-07-13T00:33:43.420Z,7.70
2018-07-13T00:36:10.414Z,7.17
2018-07-13T00:38:37.311Z,7.50
2018-07-13T00:41:04.203Z,7.90
2018-07-13T00:43:32.181Z,7.00
2018-07-13T00:45:59.103Z,6.63
2018-07-13T00:48:25.999Z,7.00
2018-07-13T00:50:52.896Z,6.70
2018-07-13T00:53:19.796Z,7.03
2018-07-13T00:55:46.688Z,6.43
2018-07-13T00:58:13.611Z,7.28
2018-07-13T01:00:40.558Z,8.10
2018-07-13T01:03:07.494Z,6.30
2018-07-13T01:05:34.407Z,6.67
2018-07-13T01:08:01.293Z,6.63
2018-07-13T01:10:28.213Z,6.87
2018-07-13T01:12:55.159Z,7.10
2018-07-13T01:15:22.320Z,7.20
2018-07-13T01:17:49.320Z,5.83
2018-07-13T01:20:16.175Z,5.90
2018-07-13T01:22:43.078Z,6.73
2018-07-13T01:25:11.752Z,6.43
2018-07-13T01:27:38.642Z,6.20
2018-07-13T01:30:06.551Z,6.70
2018-07-13T01:32:33.447Z,6.30
2018-07-13T01:35:00.337Z,7.03
2018-07-13T01:37:27.332Z,6.97
2018-07-13T01:39:54.271Z,6.80
2018-07-13T01:42:21.174Z,6.40
2018-07-13T01:44:48.080Z,6.63
2018-07-13T01:47:14.996Z,6.10
2018-07-13T01:49:41.933Z,6.27
2018-07-13T01:52:08.859Z,7.60
2018-07-13T01:54:35.765Z,6.90
2018-07-13T01:57:02.879Z,7.33
2018-07-13T01:59:29.809Z,7.67
2018-07-13T02:01:56.754Z,8.40
2018-07-13T02:04:23.647Z,7.13
2018-07-13T02:06:50.523Z,7.50
2018-07-13T02:09:17.423Z,7.70
2018-07-13T02:11:47.443Z,7.90
2018-07-13T02:14:14.344Z,7.37
2018-07-13T02:16:41.258Z,7.33
2018-07-13T02:19:08.135Z,6.30
2018-07-13T02:21:35.059Z,7.07
2018-07-13T02:24:01.931Z,6.50
2018-07-13T02:26:29.120Z,6.03
2018-07-13T02:28:56.018Z,6.70
2018-07-13T02:31:22.920Z,7.53
2018-07-13T02:33:49.849Z,8.40
2018-07-13T02:36:16.705Z,7.80
2018-07-13T02:38:43.615Z,7.37
2018-07-13T02:41:10.497Z,8.03
2018-07-13T02:43:37.391Z,9.40
2018-07-13T02:46:04.324Z,8.03
2018-07-13T02:48:31.203Z,7.40
2018-07-13T02:50:58.115Z,7.77
2018-07-13T02:53:25.003Z,7.37
2018-07-13T02:55:51.912Z,7.80
2018-07-13T02:58:18.792Z,6.60
2018-07-13T03:00:45.713Z,7.40
2018-07-13T03:03:12.623Z,6.87
2018-07-13T03:05:39.517Z,6.47
2018-07-13T03:08:07.445Z,6.30
2018-07-13T03:10:34.341Z,7.30
2018-07-13T03:13:01.209Z,6.63
2018-07-13T03:15:28.096Z,6.47
2018-07-13T03:17:54.991Z,6.85
2018-07-13T03:20:25.165Z,7.45
2018-07-13T03:22:52.063Z,7.63
2018-07-13T03:25:19.012Z,6.37
2018-07-13T03:27:45.907Z,5.97
2018-07-13T03:30:12.790Z,6.37
2018-07-13T03:32:39.748Z,7.90
2018-07-13T03:35:06.707Z,6.80
2018-07-13T03:37:33.640Z,6.10
2018-07-13T03:40:00.942Z,6.60
2018-07-13T03:42:27.841Z,6.93
2018-07-13T03:44:54.722Z,7.40
2018-07-13T03:47:21.612Z,8.07
2018-07-13T03:49:48.540Z,7.17
2018-07-13T03:52:15.441Z,7.63
2018-07-13T03:54:42.332Z,7.00
2018-07-13T03:57:09.216Z,7.03
2018-07-13T03:59:36.250Z,7.37
2018-07-13T04:02:03.184Z,7.93
2018-07-13T04:04:30.081Z,8.80
2018-07-13T04:06:56.981Z,7.40
2018-07-13T04:09:23.903Z,6.07
2018-07-13T04:11:51.062Z,7.03
2018-07-13T04:14:17.972Z,6.53
2018-07-13T04:16:44.873Z,6.37
2018-07-13T04:19:11.756Z,6.60
2018-07-13T04:21:38.667Z,5.70
2018-07-13T04:24:14.175Z,6.37
2018-07-13T04:26:43.950Z,6.03
2018-07-13T04:29:10.831Z,5.83
2018-07-13T04:31:37.754Z,5.00
2018-07-13T04:34:04.696Z,5.30
2018-07-13T04:36:31.540Z,4.90
2018-07-13T04:38:58.450Z,5.30
2018-07-13T04:41:25.358Z,5.80
2018-07-13T04:43:52.255Z,5.37
2018-07-13T04:46:19.196Z,5.40
2018-07-13T04:48:46.081Z,5.53
2018-07-13T04:51:12.971Z,4.90
2018-07-13T04:53:39.874Z,5.70
2018-07-13T04:56:06.776Z,4.83
2018-07-13T04:58:33.694Z,5.17
2018-07-13T05:01:00.619Z,6.17
2018-07-13T05:03:29.537Z,5.73
2018-07-13T05:05:56.472Z,5.60
2018-07-13T05:08:25.550Z,5.30
2018-07-13T05:10:52.535Z,6.10
2018-07-13T05:13:19.442Z,7.30
2018-07-13T05:15:46.380Z,6.63
2018-07-13T05:18:15.011Z,7.43
2018-07-13T05:20:43.068Z,7.20
2018-07-13T05:23:11.019Z,6.57
2018-07-13T05:25:37.935Z,8.00
2018-07-13T05:28:05.092Z,6.80
2018-07-13T05:30:33.215Z,7.10
2018-07-13T05:33:00.248Z,7.50
2018-07-13T05:35:28.943Z,7.47
2018-07-13T05:38:04.071Z,8.63
2018-07-13T05:40:37.523Z,8.48
2018-07-13T05:43:04.502Z,8.47
2018-07-13T05:45:31.512Z,8.70
2018-07-13T05:47:59.380Z,9.85
2018-07-13T05:50:29.431Z,9.30
2018-07-13T05:52:56.486Z,10.38
2018-07-13T05:55:23.520Z,10.58
2018-07-13T05:57:54.822Z,11.13
2018-07-13T06:00:22.563Z,11.93
2018-07-13T06:02:49.840Z,11.50
2018-07-13T06:05:16.786Z,11.00
2018-07-13T06:07:43.690Z,10.80
2018-07-13T06:10:10.587Z,11.87
2018-07-13T06:12:37.495Z,13.40
2018-07-13T06:15:04.450Z,12.93
2018-07-13T06:17:31.326Z,13.72
2018-07-13T06:19:58.225Z,13.27
2018-07-13T06:22:25.188Z,14.37
2018-07-13T06:24:52.164Z,14.13
2018-07-13T06:27:19.064Z,14.10
2018-07-13T06:29:45.980Z,14.30
2018-07-13T06:32:12.873Z,14.53
2018-07-13T06:34:39.759Z,13.80
2018-07-13T06:37:06.660Z,15.50
2018-07-13T06:39:33.557Z,14.83
2018-07-13T06:42:00.840Z,15.00
2018-07-13T06:44:27.758Z,17.67
2018-07-13T06:46:54.628Z,16.53
2018-07-13T06:49:21.530Z,13.80
2018-07-13T06:51:48.449Z,14.77
2018-07-13T06:54:15.523Z,14.23
2018-07-13T06:56:43.462Z,12.03
2018-07-13T06:59:16.221Z,12.43
2018-07-13T07:01:43.787Z,13.03
2018-07-13T07:04:35.124Z,11.60
2018-07-13T07:07:06.725Z,12.90
2018-07-13T07:09:33.688Z,12.67
2018-07-13T07:12:26.839Z,11.27
2018-07-13T07:14:53.740Z,11.33
2018-07-13T07:17:20.655Z,12.00
2018-07-13T07:19:47.552Z,11.77
2018-07-13T07:22:14.536Z,12.50
2018-07-13T07:24:41.455Z,11.00
2018-07-13T07:27:08.379Z,10.03
2018-07-13T07:29:35.285Z,10.00
2018-07-13T07:32:02.185Z,10.67
2018-07-13T07:34:29.091Z,10.43
2018-07-13T07:36:56.286Z,9.10
2018-07-13T07:39:23.523Z,10.30
2018-07-13T07:41:51.305Z,9.00
2018-07-13T07:44:18.208Z,9.53
2018-07-13T07:46:45.412Z,9.43
2018-07-13T07:49:12.610Z,9.50
2018-07-13T07:51:39.509Z,8.23
2018-07-13T07:54:06.425Z,9.70
2018-07-13T07:56:33.352Z,8.43
2018-07-13T07:59:00.243Z,7.93
2018-07-13T08:01:27.160Z,8.67
2018-07-13T08:03:54.070Z,7.77
2018-07-13T08:06:21.135Z,7.93
2018-07-13T08:08:47.913Z,6.93
2018-07-13T08:11:15.236Z,6.87
2018-07-13T08:13:42.255Z,8.20
2018-07-13T08:16:09.116Z,7.47
2018-07-13T08:18:36.022Z,6.67
2018-07-13T08:21:02.919Z,6.57
2018-07-13T08:23:29.829Z,6.50
2018-07-13T08:25:56.746Z,7.10
2018-07-13T08:28:23.768Z,6.93
2018-07-13T08:30:54.951Z,6.20
2018-07-13T08:33:21.867Z,7.10
2018-07-13T08:35:48.779Z,6.50
2018-07-13T08:38:15.687Z,5.90
2018-07-13T08:40:42.597Z,6.90
2018-07-13T08:43:09.488Z,6.87
2018-07-13T08:45:36.399Z,6.73
2018-07-13T08:48:05.491Z,7.50
2018-07-13T08:50:32.416Z,6.30
2018-07-13T08:52:59.342Z,6.60
2018-07-13T08:55:26.259Z,6.93
2018-07-13T08:57:53.218Z,6.80
2018-07-13T09:00:20.220Z,6.37
2018-07-13T09:02:47.167Z,5.90
2018-07-13T09:05:14.079Z,6.47
2018-07-13T09:07:41.000Z,6.30
2018-07-13T09:10:09.396Z,6.72
2018-07-13T09:12:36.439Z,5.77
2018-07-13T09:15:03.360Z,5.70
2018-07-13T09:17:30.258Z,5.73
2018-07-13T09:19:57.196Z,6.60
2018-07-13T09:22:24.151Z,7.00
2018-07-13T09:24:51.076Z,6.13
2018-07-13T09:27:17.999Z,6.07
2018-07-13T09:29:45.003Z,6.13
2018-07-13T09:32:11.967Z,6.00
2018-07-13T09:34:38.928Z,5.57
2018-07-13T09:37:05.977Z,5.20
2018-07-13T09:39:32.891Z,5.07
2018-07-13T09:41:59.794Z,5.03
2018-07-13T09:44:26.703Z,5.90
2018-07-13T09:46:53.705Z,5.07
2018-07-13T09:49:20.503Z,5.37
2018-07-13T09:51:47.452Z,4.70
2018-07-13T09:54:14.432Z,5.83
2018-07-13T09:56:41.248Z,6.30
2018-07-13T09:59:08.176Z,6.17
2018-07-13T10:01:35.109Z,4.80
2018-07-13T10:04:02.016Z,5.27
2018-07-13T10:06:28.937Z,5.67
2018-07-13T10:08:55.900Z,6.27
2018-07-13T10:11:23.784Z,4.70
2018-07-13T10:13:50.746Z,4.67
2018-07-13T10:16:17.651Z,4.73
2018-07-13T10:18:44.537Z,5.53
2018-07-13T10:21:11.440Z,5.60
2018-07-13T10:23:38.644Z,6.40
2018-07-13T10:26:07.571Z,4.83
2018-07-13T10:28:37.096Z,4.57
2018-07-13T10:31:03.996Z,4.60
2018-07-13T10:33:32.075Z,4.37
2018-07-13T10:36:00.442Z,5.00
2018-07-13T10:38:27.369Z,5.30
2018-07-13T10:40:55.076Z,4.37
2018-07-13T10:43:22.014Z,4.57
2018-07-13T10:45:48.903Z,4.23
2018-07-13T10:48:15.785Z,4.60
2018-07-13T10:50:42.693Z,4.83
2018-07-13T10:53:09.605Z,4.40
2018-07-13T10:55:36.520Z,5.20
2018-07-13T10:58:03.457Z,5.27
2018-07-13T11:00:30.394Z,5.23
2018-07-13T11:02:57.360Z,5.60
2018-07-13T11:05:24.238Z,5.30
2018-07-13T11:07:51.170Z,5.30
2018-07-13T11:10:18.060Z,5.30
2018-07-13T11:12:44.976Z,5.30
2018-07-13T11:15:11.892Z,4.87
2018-07-13T11:17:38.791Z,5.33
2018-07-13T11:20:06.591Z,4.87
2018-07-13T11:22:33.512Z,4.53
2018-07-13T11:25:00.406Z,4.67
2018-07-13T11:27:27.306Z,4.50
2018-07-13T11:29:54.211Z,4.83
2018-07-13T11:32:21.131Z,4.77
2018-07-13T11:34:48.068Z,4.43
2018-07-13T11:37:15.081Z,5.40
2018-07-13T11:39:41.959Z,4.90
2018-07-13T11:42:08.913Z,5.40
2018-07-13T11:44:35.852Z,5.30
2018-07-13T11:47:02.763Z,5.30
2018-07-13T11:49:29.667Z,5.33
2018-07-13T11:51:56.583Z,5.03
2018-07-13T11:54:23.556Z,5.20
2018-07-13T11:56:50.415Z,5.30
2018-07-13T11:59:17.319Z,4.40
2018-07-13T12:01:44.227Z,4.80
2018-07-13T12:04:11.182Z,4.87
2018-07-13T12:06:38.105Z,5.17
2018-07-13T12:09:05.467Z,4.53
2018-07-13T12:11:32.682Z,4.23
2018-07-13T12:13:59.564Z,5.40
2018-07-13T12:16:26.523Z,5.00
2018-07-13T12:18:53.432Z,5.67
2018-07-13T12:21:20.364Z,5.17
2018-07-13T12:23:47.272Z,5.10
2018-07-13T12:26:14.191Z,5.43
2018-07-13T12:28:41.205Z,4.83
2018-07-13T12:31:08.132Z,5.23
2018-07-13T12:33:35.046Z,4.80
2018-07-13T12:36:01.940Z,4.80
2018-07-13T12:38:28.850Z,4.20
2018-07-13T12:40:55.764Z,5.20
2018-07-13T12:43:23.652Z,4.57
2018-07-13T12:45:50.569Z,5.07
2018-07-13T12:48:17.504Z,5.23
2018-07-13T12:50:44.432Z,4.93
2018-07-13T12:53:11.367Z,4.10
2018-07-13T12:55:38.271Z,4.03
2018-07-13T12:58:05.294Z,5.20
2018-07-13T13:00:32.235Z,4.17
2018-07-13T13:02:59.177Z,4.37
2018-07-13T13:05:26.153Z,4.30
2018-07-13T13:07:53.047Z,4.00
2018-07-13T13:10:19.932Z,4.27
2018-07-13T13:12:46.819Z,3.83
2018-07-13T13:15:13.818Z,3.80
2018-07-13T13:17:40.737Z,3.87
2018-07-13T13:20:07.637Z,4.00
2018-07-13T13:22:34.592Z,3.60
2018-07-13T13:25:01.484Z,3.90
2018-07-13T13:27:28.377Z,4.23
2018-07-13T13:29:55.444Z,4.00
2018-07-13T13:32:22.365Z,4.57
2018-07-13T13:34:49.280Z,4.17
2018-07-13T13:37:16.181Z,5.07
2018-07-13T13:39:43.126Z,3.77
2018-07-13T13:42:10.144Z,3.80
2018-07-13T13:44:37.067Z,3.93
2018-07-13T13:47:05.082Z,4.00
2018-07-13T13:49:32.845Z,4.50
2018-07-13T13:51:59.791Z,3.73
2018-07-13T13:54:26.765Z,3.70
2018-07-13T13:56:53.659Z,3.93
2018-07-13T13:59:20.571Z,4.20
2018-07-13T14:01:47.456Z,3.53
2018-07-13T14:04:14.494Z,4.13
2018-07-13T14:06:41.372Z,3.93
2018-07-13T14:09:08.414Z,3.90
2018-07-13T14:11:35.326Z,3.90
2018-07-13T14:14:02.299Z,3.27
2018-07-13T14:16:29.189Z,2.90
2018-07-13T14:18:56.090Z,3.50
2018-07-13T14:21:23.074Z,2.97
2018-07-13T14:23:50.015Z,3.37
2018-07-13T14:26:16.913Z,3.83
2018-07-13T14:28:43.985Z,3.80
2018-07-13T14:31:10.914Z,4.03
2018-07-13T14:33:37.808Z,3.50
2018-07-13T14:36:04.738Z,3.70
2018-07-13T14:38:31.692Z,3.65
2018-07-13T14:40:58.624Z,3.53
2018-07-13T14:43:25.539Z,3.40
2018-07-13T14:45:52.490Z,3.37
2018-07-13T14:48:19.461Z,2.70
2018-07-13T14:50:46.391Z,3.20
2018-07-13T14:53:13.287Z,3.00
2018-07-13T14:55:40.233Z,3.40
2018-07-13T14:58:07.127Z,3.63
2018-07-13T15:00:34.046Z,3.50
2018-07-13T15:03:01.001Z,3.27
2018-07-13T15:05:27.884Z,3.20
2018-07-13T15:07:54.883Z,3.30
2018-07-13T15:10:22.021Z,3.10
2018-07-13T15:12:48.892Z,3.40
2018-07-13T15:15:15.827Z,3.23
2018-07-13T15:17:42.680Z,3.40
2018-07-13T15:20:09.602Z,3.53
2018-07-13T15:22:36.531Z,3.00
2018-07-13T15:25:03.447Z,3.10
2018-07-13T15:27:30.406Z,3.10
2018-07-13T15:29:57.307Z,3.27
2018-07-13T15:32:24.221Z,3.07
2018-07-13T15:34:51.124Z,2.83
2018-07-13T15:37:18.060Z,3.10
2018-07-13T15:39:44.920Z,3.40
2018-07-13T15:42:14.844Z,2.93
2018-07-13T15:44:43.912Z,3.25
2018-07-13T15:47:12.980Z,2.90
2018-07-13T15:49:41.794Z,2.97
2018-07-13T15:52:08.794Z,3.27
2018-07-13T15:54:36.828Z,3.43
2018-07-13T15:57:09.891Z,3.30
2018-07-13T15:59:36.865Z,3.23
2018-07-13T16:02:03.830Z,2.70
2018-07-13T16:04:30.796Z,3.00
2018-07-13T16:06:57.764Z,3.10
2018-07-13T16:09:24.709Z,2.73
2018-07-13T16:11:51.656Z,2.97
2018-07-13T16:14:18.593Z,2.83
2018-07-13T16:16:45.491Z,2.97
2018-07-13T16:19:12.472Z,2.93
2018-07-13T16:21:39.396Z,3.03
2018-07-13T16:24:06.278Z,3.07
2018-07-13T16:26:33.164Z,3.02
2018-07-13T16:29:03.079Z,2.77
2018-07-13T16:31:29.980Z,2.90
2018-07-13T16:33:56.893Z,3.13
2018-07-13T16:36:23.818Z,3.00
2018-07-13T16:38:50.709Z,2.43
2018-07-13T16:41:17.599Z,2.90
2018-07-13T16:43:44.495Z,2.43
2018-07-13T16:46:11.379Z,2.70
2018-07-13T16:48:38.282Z,2.90
2018-07-13T16:51:05.167Z,2.70
2018-07-13T16:53:32.162Z,2.80
2018-07-13T16:55:59.125Z,2.77
2018-07-13T16:58:26.058Z,2.93
2018-07-13T17:00:52.970Z,2.70
2018-07-13T17:03:20.815Z,2.60
2018-07-13T17:05:48.710Z,2.70
2018-07-13T17:08:15.606Z,2.70
2018-07-13T17:10:42.509Z,2.73
2018-07-13T17:13:09.407Z,2.40
2018-07-13T17:15:36.299Z,2.73
2018-07-13T17:18:03.273Z,2.60
2018-07-13T17:20:30.431Z,2.40
2018-07-13T17:22:57.208Z,2.53
2018-07-13T17:25:24.118Z,2.70
2018-07-13T17:27:51.227Z,2.60
2018-07-13T17:30:18.123Z,2.47
2018-07-13T17:32:45.078Z,2.53
2018-07-13T17:35:11.984Z,2.67
2018-07-13T17:37:38.873Z,2.45
2018-07-13T17:40:06.775Z,2.70
2018-07-13T17:42:33.699Z,2.77
2018-07-13T17:45:01.666Z,2.50
2018-07-13T17:47:28.576Z,2.73
2018-07-13T17:49:55.510Z,2.57
2018-07-13T17:52:22.439Z,2.67
2018-07-13T17:54:49.368Z,2.30
2018-07-13T17:57:16.330Z,2.80
2018-07-13T17:59:43.243Z,2.27
2018-07-13T18:02:10.146Z,2.80
2018-07-13T18:04:37.045Z,2.37
2018-07-13T18:07:04.026Z,2.70
2018-07-13T18:09:30.980Z,2.37
2018-07-13T18:11:57.820Z,2.10
2018-07-13T18:14:24.736Z,2.50
2018-07-13T18:16:51.632Z,2.87
2018-07-13T18:19:18.548Z,2.43
2018-07-13T18:21:45.448Z,5.53
2018-07-13T18:24:12.348Z,3.30
2018-07-13T18:26:39.285Z,2.67
2018-07-13T18:29:06.174Z,2.70
2018-07-13T18:31:33.090Z,2.80
2018-07-13T18:34:00.019Z,3.17
2018-07-13T18:36:26.902Z,5.00
2018-07-13T18:38:53.851Z,5.97
2018-07-13T18:41:20.782Z,5.17
2018-07-13T18:43:47.929Z,4.40
2018-07-13T18:46:14.815Z,3.60
2018-07-13T18:48:44.733Z,3.90
2018-07-13T18:51:11.620Z,2.90
2018-07-13T18:53:38.522Z,3.60
2018-07-13T18:56:05.574Z,3.40
2018-07-13T18:58:32.506Z,3.27
2018-07-13T19:00:59.444Z,3.47
2018-07-13T19:03:26.371Z,3.40
2018-07-13T19:05:53.285Z,3.13
2018-07-13T19:08:20.193Z,3.60
2018-07-13T19:10:47.131Z,4.20
2018-07-13T19:13:14.045Z,3.30
2018-07-13T19:15:40.947Z,3.53
2018-07-13T19:18:07.858Z,3.80
2018-07-13T19:20:34.771Z,2.93
2018-07-13T19:23:01.716Z,3.10
2018-07-13T19:25:28.613Z,3.47
2018-07-13T19:27:55.612Z,3.37
2018-07-13T19:30:23.316Z,3.60
2018-07-13T19:32:50.217Z,3.33
2018-07-13T19:35:17.097Z,3.33
2018-07-13T19:37:43.987Z,3.87
2018-07-13T19:40:10.932Z,3.30
2018-07-13T19:42:37.831Z,3.77
2018-07-13T19:45:04.845Z,3.30
2018-07-13T19:47:32.340Z,3.60
2018-07-13T19:49:58.676Z,3.80
2018-07-13T19:52:25.583Z,3.40
2018-07-13T19:54:52.477Z,4.17
2018-07-13T19:57:19.567Z,3.60
2018-07-13T19:59:46.297Z,3.37
2018-07-13T20:02:13.195Z,3.93
2018-07-13T20:04:40.099Z,3.87
2018-07-13T20:07:07.866Z,3.93
2018-07-13T20:09:34.795Z,3.77
2018-07-13T20:12:01.708Z,3.80
2018-07-13T20:14:28.638Z,4.07
2018-07-13T20:16:55.652Z,4.30
2018-07-13T20:19:22.484Z,3.80
2018-07-13T20:21:49.428Z,4.37
2018-07-13T20:24:16.471Z,4.90
2018-07-13T20:26:43.372Z,4.17
2018-07-13T20:29:10.274Z,4.57
2018-07-13T20:31:37.206Z,4.40
2018-07-13T20:34:04.477Z,4.63
2018-07-13T20:36:31.385Z,4.03
2018-07-13T20:38:58.375Z,4.17
2018-07-13T20:41:25.304Z,4.10
2018-07-13T20:43:52.229Z,4.60
2018-07-13T20:46:19.131Z,4.60
2018-07-13T20:48:46.018Z,4.60
2018-07-13T20:51:12.897Z,4.53
2018-07-13T20:53:39.840Z,4.47
2018-07-13T20:56:06.729Z,4.53
2018-07-13T20:58:33.655Z,4.10
2018-07-13T21:01:00.577Z,4.20
2018-07-13T21:03:27.502Z,4.83
2018-07-13T21:05:54.424Z,4.10
2018-07-13T21:08:21.361Z,4.43
2018-07-13T21:10:48.250Z,4.40
2018-07-13T21:13:15.136Z,4.07
2018-07-13T21:15:42.065Z,3.90
2018-07-13T21:18:08.981Z,4.20
2018-07-13T21:20:35.904Z,4.30
2018-07-13T21:23:02.801Z,4.43
2018-07-13T21:25:29.684Z,4.30
2018-07-13T21:27:56.589Z,4.67
2018-07-13T21:30:23.473Z,5.10
2018-07-13T21:32:50.406Z,4.60
2018-07-13T21:35:17.290Z,5.33
2018-07-13T21:37:44.210Z,5.17
2018-07-13T21:40:11.119Z,5.10
2018-07-13T21:42:38.023Z,5.47
2018-07-13T21:45:04.942Z,5.70
2018-07-13T21:47:31.844Z,6.17
2018-07-13T21:49:58.776Z,6.50
2018-07-13T21:52:25.674Z,5.70
2018-07-13T21:54:52.562Z,5.40
2018-07-13T21:57:19.434Z,5.30
2018-07-13T21:59:46.383Z,5.30
2018-07-13T22:02:13.324Z,5.33
2018-07-13T22:04:41.059Z,5.20
2018-07-13T22:07:07.944Z,4.80
2018-07-13T22:09:34.870Z,5.40
2018-07-13T22:12:02.486Z,5.40
2018-07-13T22:14:29.374Z,5.58
2018-07-13T22:16:56.281Z,5.33
2018-07-13T22:19:23.178Z,5.40
2018-07-13T22:21:50.062Z,6.13
2018-07-13T22:24:16.956Z,4.60
2018-07-13T22:26:43.835Z,5.70
2018-07-13T22:29:10.739Z,5.10
2018-07-13T22:31:37.623Z,5.43
2018-07-13T22:34:04.885Z,5.23
2018-07-13T22:36:31.770Z,4.90
2018-07-13T22:38:58.667Z,5.60
2018-07-13T22:41:25.556Z,4.60
2018-07-13T22:43:52.444Z,5.37
2018-07-13T22:46:19.343Z,5.20
2018-07-13T22:48:46.408Z,5.53
2018-07-13T22:51:13.402Z,4.40
2018-07-13T22:53:40.240Z,5.57
2018-07-13T22:56:08.062Z,4.97
2018-07-13T22:58:34.947Z,5.20
2018-07-13T23:01:01.866Z,5.67
2018-07-13T23:03:30.850Z,5.63
2018-07-13T23:05:58.426Z,5.50
2018-07-13T23:08:25.317Z,5.33
2018-07-13T23:10:52.196Z,5.83
2018-07-13T23:13:19.082Z,5.13
2018-07-13T23:15:45.992Z,5.20
2018-07-13T23:18:12.904Z,4.87
2018-07-13T23:20:39.817Z,5.20
2018-07-13T23:23:06.720Z,5.97
2018-07-13T23:25:33.602Z,5.13
2018-07-13T23:28:00.632Z,5.30
2018-07-13T23:30:27.550Z,4.97
2018-07-13T23:32:54.435Z,5.67
2018-07-13T23:35:21.311Z,5.60
2018-07-13T23:37:48.225Z,5.78
2018-07-13T23:40:15.125Z,5.17
2018-07-13T23:42:42.004Z,5.67
2018-07-13T23:45:08.958Z,5.87
2018-07-13T23:47:35.945Z,5.47
2018-07-13T23:50:02.896Z,6.20
2018-07-13T23:52:29.746Z,5.57
2018-07-13T23:54:56.689Z,6.10
2018-07-13T23:57:25.558Z,5.83
2018-07-13T23:59:52.511Z,5.47
